Time;durP1;ratioP1;P1;durP2;ratioP2;P2;SDS_P1;SDS_P2;PMS_P1;PMS_P2;Temp;Humidity;BMP_temperature;BMP_pressure;BME280_temperature;BME280_humidity;BME280_pressure;Samples;Min_cycle;Max_cycle;Signal;HPM_P1;HPM_P2
2023/02/26 00:02:56;;;;;;;;;19.50;18.50;;;;;7.64;57.31;97482.63;6150850;28;96554;-62
2023/02/26 00:06:01;;;;;;;;;19.75;19.50;;;;;7.61;57.31;97493.81;6157451;28;96788;-62
2023/02/26 00:09:05;;;;;;;;;19.00;17.50;;;;;7.56;57.41;97502.59;6155219;28;96326;-62
2023/02/26 00:12:11;;;;;;;;;25.00;23.00;;;;;7.50;57.57;97510.75;6172977;28;96244;-62
2023/02/26 00:15:17;;;;;;;;;20.60;20.00;;;;;7.47;57.55;97500.50;6172208;28;97168;-62
2023/02/26 00:18:21;;;;;;;;;19.40;18.60;;;;;7.45;57.44;97498.03;6166941;28;96460;-62
2023/02/26 00:21:26;;;;;;;;;15.00;14.00;;;;;7.40;57.48;97503.28;6164470;28;96530;-62
2023/02/26 00:24:30;;;;;;;;;13.60;12.80;;;;;7.41;56.97;97502.25;6164232;28;96367;-62
2023/02/26 00:27:33;;;;;;;;;11.60;11.20;;;;;7.44;56.72;97509.81;6146016;28;97594;-62
2023/02/26 00:30:37;;;;;;;;;14.25;13.00;;;;;7.45;56.52;97516.81;6145976;28;96684;-62
2023/02/26 00:33:42;;;;;;;;;14.00;12.40;;;;;7.54;56.52;97525.31;6146426;28;99809;-62
2023/02/26 00:36:54;;;;;;;;;11.00;11.00;;;;;7.49;56.09;97528.69;6164471;28;96812;-62
2023/02/26 00:40:10;;;;;;;;;9.00;8.00;;;;;7.42;56.30;97543.28;6130687;28;96852;-62
2023/02/26 00:43:17;;;;;;;;;11.50;10.50;;;;;7.34;56.22;97545.25;6148753;28;96309;-62
2023/02/26 00:46:30;;;;;;;;;11.00;9.00;;;;;7.39;55.98;97549.91;6137054;28;97096;-62
2023/02/26 00:49:48;;;;;;;;;11.00;10.00;;;;;7.48;55.93;97553.88;6156983;28;96855;-62
2023/02/26 00:53:03;;;;;;;;;11.60;9.00;;;;;7.36;55.56;97534.31;6136764;28;96649;-62
2023/02/26 00:56:07;;;;;;;;;9.60;8.00;;;;;7.56;55.37;97561.56;6146600;28;97145;-62
2023/02/26 00:59:10;;;;;;;;;11.00;11.00;;;;;7.65;55.02;97564.72;6146362;28;98333;-63
2023/02/26 01:02:14;;;;;;;;;11.33;11.00;;;;;7.65;54.77;97570.06;6148772;28;96490;-62
2023/02/26 01:05:18;;;;;;;;;13.40;13.00;;;;;7.62;55.20;97567.88;6130531;28;96225;-62
2023/02/26 01:08:31;;;;;;;;;12.40;11.60;;;;;7.58;55.64;97570.19;6136655;28;96535;-63
2023/02/26 01:11:36;;;;;;;;;20.00;18.00;;;;;7.52;55.78;97552.38;6138817;28;96498;-62
2023/02/26 01:14:40;;;;;;;;;17.60;16.60;;;;;7.61;56.04;97567.06;6151931;28;96516;-62
2023/02/26 01:17:48;;;;;;;;;18.00;18.00;;;;;7.62;56.10;97562.50;6130238;28;96470;-62
2023/02/26 01:20:56;;;;;;;;;20.00;18.40;;;;;7.67;56.04;97549.22;6149563;28;96222;-62
2023/02/26 01:24:06;;;;;;;;;19.00;17.75;;;;;7.66;55.91;97540.34;6161638;28;97723;-62
2023/02/26 01:27:10;;;;;;;;;23.00;20.00;;;;;7.67;55.81;97543.84;6156738;28;97100;-62
2023/02/26 01:30:14;;;;;;;;;20.60;19.60;;;;;7.73;55.64;97540.19;6130646;28;96476;-61
2023/02/26 01:33:25;;;;;;;;;16.00;15.00;;;;;7.67;55.38;97541.94;6162175;28;96953;-62
2023/02/26 01:36:36;;;;;;;;;15.00;14.00;;;;;7.68;55.47;97540.91;6145724;28;96618;-62
2023/02/26 01:39:47;;;;;;;;;14.00;13.40;;;;;7.67;55.50;97536.59;6138248;28;96422;-62
2023/02/26 01:42:57;;;;;;;;;11.50;11.25;;;;;7.61;55.51;97532.19;6149955;28;96348;-63
2023/02/26 01:46:09;;;;;;;;;13.00;12.25;;;;;7.55;55.14;97549.22;6137859;28;96393;-63
2023/02/26 01:49:14;;;;;;;;;11.80;10.80;;;;;7.56;55.30;97558.91;6155528;28;97485;-62
2023/02/26 01:52:52;;;;;;;;;13.00;12.00;;;;;7.57;55.27;97575.81;6148715;28;96415;-62
2023/02/26 01:56:00;;;;;;;;;7.80;7.80;;;;;7.57;54.70;97573.94;6130153;28;96762;-62
2023/02/26 01:59:07;;;;;;;;;12.80;11.80;;;;;7.49;55.05;97576.97;6154754;28;96424;-63
2023/02/26 02:02:13;;;;;;;;;10.50;9.50;;;;;7.49;54.83;97584.19;6137310;28;96160;-62
2023/02/26 02:05:22;;;;;;;;;12.25;11.00;;;;;7.48;54.94;97591.41;6155446;28;96309;-62
2023/02/26 02:08:25;;;;;;;;;12.80;11.80;;;;;7.50;54.60;97601.91;6148772;28;96350;-63
2023/02/26 02:11:31;;;;;;;;;11.00;11.00;;;;;7.51;54.21;97607.06;6158764;28;96068;-63
2023/02/26 02:14:46;;;;;;;;;12.00;12.00;;;;;7.58;54.05;97613.09;6143020;28;96478;-62
2023/02/26 02:17:59;;;;;;;;;10.25;10.00;;;;;7.62;53.63;97606.25;6145530;28;96824;-63
2023/02/26 02:21:45;;;;;;;;;11.20;10.00;;;;;7.65;53.69;97597.72;6145346;28;96357;-63
2023/02/26 02:25:05;;;;;;;;;11.25;10.25;;;;;7.70;53.51;97597.84;6152002;28;96584;-63
2023/02/26 02:28:27;;;;;;;;;12.00;11.20;;;;;7.72;53.25;97609.13;6149403;28;96305;-62
2023/02/26 02:31:38;;;;;;;;;11.00;9.20;;;;;7.75;52.81;97619.41;6159997;28;96699;-63
2023/02/26 02:34:48;;;;;;;;;12.00;11.00;;;;;7.78;52.71;97634.19;6131803;28;99603;-62
2023/02/26 02:37:57;;;;;;;;;12.00;10.00;;;;;7.76;53.07;97636.31;6129111;28;96164;-62
2023/02/26 02:41:08;;;;;;;;;14.00;14.00;;;;;7.80;53.31;97649.03;6120095;28;98488;-62
2023/02/26 02:44:15;;;;;;;;;14.40;13.00;;;;;7.77;53.38;97654.06;6146816;28;96343;-62
2023/02/26 02:47:23;;;;;;;;;14.60;12.00;;;;;7.61;53.11;97636.78;6143969;28;96447;-62
2023/02/26 02:50:31;;;;;;;;;12.00;11.60;;;;;7.72;53.21;97656.63;6150614;28;96486;-62
2023/02/26 02:53:40;;;;;;;;;13.00;12.00;;;;;7.75;53.08;97659.66;6144232;28;96895;-63
2023/02/26 02:56:50;;;;;;;;;14.00;14.00;;;;;7.76;53.50;97663.97;6132174;28;96235;-62
2023/02/26 02:59:58;;;;;;;;;13.50;13.00;;;;;7.75;53.47;97656.13;6154536;28;96681;-63
2023/02/26 03:03:13;;;;;;;;;14.00;13.00;;;;;7.72;53.38;97644.00;6118808;28;97196;-63
2023/02/26 03:06:17;;;;;;;;;13.00;12.00;;;;;7.73;53.60;97639.44;6147493;28;96324;-63
2023/02/26 03:09:24;;;;;;;;;14.00;14.00;;;;;7.72;53.78;97635.16;6146565;28;96434;-62
2023/02/26 03:12:32;;;;;;;;;15.60;14.00;;;;;7.78;53.02;97624.28;6133855;28;98970;-62
2023/02/26 03:15:39;;;;;;;;;15.40;15.00;;;;;7.74;52.83;97615.09;6139613;28;96362;-63
2023/02/26 03:18:53;;;;;;;;;14.40;14.40;;;;;7.78;52.57;97626.16;6162505;28;96264;-62
2023/02/26 03:22:05;;;;;;;;;13.75;12.75;;;;;7.75;52.22;97640.88;6130593;28;96319;-62
2023/02/26 03:25:34;;;;;;;;;10.00;9.80;;;;;7.73;51.71;97652.88;6161106;28;96275;-62
2023/02/26 03:28:43;;;;;;;;;9.00;8.00;;;;;7.61;51.45;97670.84;6144404;28;96789;-62
2023/02/26 03:31:54;;;;;;;;;10.50;10.00;;;;;7.50;51.59;97685.84;6122316;28;96743;-62
2023/02/26 03:35:06;;;;;;;;;10.00;9.60;;;;;7.44;51.22;97681.41;6117747;28;98361;-63
2023/02/26 03:38:15;;;;;;;;;10.00;9.00;;;;;7.54;50.83;97702.28;6119991;28;97824;-62
2023/02/26 03:41:24;;;;;;;;;8.00;8.00;;;;;7.59;50.64;97711.28;6151723;28;96237;-63
2023/02/26 03:44:32;;;;;;;;;9.80;9.80;;;;;7.62;49.88;97718.91;6147941;28;96518;-63
2023/02/26 03:47:36;;;;;;;;;7.75;7.25;;;;;7.58;49.10;97720.38;6128704;28;96448;-63
2023/02/26 03:50:46;;;;;;;;;9.80;9.00;;;;;7.66;48.34;97716.56;6136060;28;96226;-63
2023/02/26 03:54:21;;;;;;;;;10.60;10.60;;;;;7.56;48.45;97717.13;6143569;28;96612;-62
2023/02/26 03:57:35;;;;;;;;;11.00;10.50;;;;;7.57;48.25;97709.91;6130903;28;96689;-62
2023/02/26 04:00:59;;;;;;;;;8.00;8.00;;;;;7.56;47.96;97708.25;6117872;28;96786;-63
2023/02/26 04:04:07;;;;;;;;;8.60;8.60;;;;;7.60;47.73;97704.88;6140251;28;96465;-63
2023/02/26 04:07:14;;;;;;;;;7.80;7.00;;;;;7.53;47.47;97722.09;6140208;28;96319;-62
2023/02/26 04:10:21;;;;;;;;;8.00;7.50;;;;;7.48;47.06;97735.41;6132898;28;96323;-62
2023/02/26 04:13:27;;;;;;;;;7.00;7.00;;;;;7.35;46.85;97750.66;6132120;28;96341;-62
2023/02/26 04:16:31;;;;;;;;;8.50;7.50;;;;;7.28;47.35;97757.94;6147145;28;96189;-62
2023/02/26 04:19:34;;;;;;;;;9.00;8.40;;;;;7.31;47.24;97762.06;6165481;28;97904;-62
2023/02/26 04:22:39;;;;;;;;;6.20;6.00;;;;;7.27;46.96;97775.09;6139808;28;96259;-62
2023/02/26 04:25:43;;;;;;;;;7.75;7.75;;;;;7.21;47.12;97784.06;6128864;28;96266;-62
2023/02/26 04:28:47;;;;;;;;;9.00;9.00;;;;;7.04;46.91;97758.13;6134365;28;96376;-62
2023/02/26 04:31:51;;;;;;;;;8.00;8.00;;;;;7.06;46.03;97772.91;6160720;28;96410;-63
2023/02/26 04:34:55;;;;;;;;;7.00;6.00;;;;;7.18;46.18;97800.59;6147368;28;96417;-62
2023/02/26 04:38:00;;;;;;;;;6.00;5.00;;;;;7.20;46.41;97801.16;6146320;28;96267;-62
2023/02/26 04:41:03;;;;;;;;;6.25;6.25;;;;;7.26;46.25;97802.13;6131409;28;96065;-62
2023/02/26 04:44:07;;;;;;;;;6.75;6.75;;;;;7.30;45.73;97800.63;6146843;28;96360;-63
2023/02/26 04:47:13;;;;;;;;;6.40;6.00;;;;;7.25;45.73;97817.41;6140021;28;96662;-62
2023/02/26 04:50:17;;;;;;;;;6.00;6.00;;;;;7.23;45.93;97810.63;6146763;28;96477;-62
2023/02/26 04:53:24;;;;;;;;;7.80;7.80;;;;;7.20;46.18;97809.22;6147080;28;96374;-63
2023/02/26 04:56:28;;;;;;;;;7.00;6.00;;;;;7.26;46.23;97812.84;6145596;28;96611;-62
2023/02/26 04:59:32;;;;;;;;;5.00;5.00;;;;;7.25;46.67;97809.34;6146927;28;98442;-63
2023/02/26 05:02:36;;;;;;;;;8.00;7.50;;;;;7.26;46.20;97811.00;6135449;28;96696;-63
2023/02/26 05:05:39;;;;;;;;;9.75;9.00;;;;;7.24;46.73;97821.13;6158407;28;96739;-63
2023/02/26 05:08:44;;;;;;;;;7.00;6.25;;;;;7.27;47.05;97822.53;6147453;28;98022;-63
2023/02/26 05:11:48;;;;;;;;;8.00;8.00;;;;;7.29;46.78;97836.50;6133487;28;96850;-62
2023/02/26 05:14:51;;;;;;;;;4.80;4.80;;;;;7.27;46.46;97836.75;6143138;28;97618;-63
2023/02/26 05:17:54;;;;;;;;;6.20;6.20;;;;;7.29;46.81;97828.47;6164174;28;96638;-62
2023/02/26 05:20:59;;;;;;;;;7.00;7.00;;;;;7.20;46.51;97825.28;6115700;28;98249;-62
2023/02/26 05:24:04;;;;;;;;;8.00;7.00;;;;;7.23;46.69;97824.03;6121557;28;97200;-62
2023/02/26 05:27:07;;;;;;;;;8.50;8.00;;;;;7.22;46.37;97833.13;6122117;28;96611;-63
2023/02/26 05:30:16;;;;;;;;;6.60;6.00;;;;;7.15;45.24;97837.72;6114861;28;96800;-62
2023/02/26 05:33:20;;;;;;;;;6.00;6.00;;;;;7.11;45.03;97825.81;6148892;28;96447;-62
2023/02/26 05:36:23;;;;;;;;;6.00;6.00;;;;;7.23;44.76;97846.28;6135930;28;98433;-63
2023/02/26 05:39:28;;;;;;;;;7.00;6.00;;;;;7.28;44.75;97851.00;6121389;28;96667;-62
2023/02/26 05:42:32;;;;;;;;;6.00;6.00;;;;;7.29;44.64;97861.47;6150461;28;96350;-63
2023/02/26 05:45:35;;;;;;;;;4.00;4.00;;;;;7.29;44.67;97871.38;6163963;28;96349;-62
2023/02/26 05:48:38;;;;;;;;;7.00;7.00;;;;;7.24;44.67;97888.13;6145713;28;96546;-62
2023/02/26 05:51:43;;;;;;;;;7.50;7.00;;;;;7.25;44.80;97900.50;6164019;28;96321;-62
2023/02/26 05:54:47;;;;;;;;;8.00;7.25;;;;;7.20;44.75;97918.28;6150695;28;96279;-62
2023/02/26 05:57:50;;;;;;;;;5.00;5.00;;;;;7.22;44.50;97924.25;6139150;28;96519;-62
2023/02/26 06:00:54;;;;;;;;;7.00;6.20;;;;;7.23;43.54;97924.00;6153974;28;96357;-63
2023/02/26 06:03:57;;;;;;;;;6.80;6.20;;;;;7.19;43.87;97930.03;6146120;28;96500;-62
2023/02/26 06:07:01;;;;;;;;;8.60;8.60;;;;;7.22;43.90;97937.66;6144770;28;96618;-63
2023/02/26 06:10:08;;;;;;;;;9.00;8.00;;;;;7.22;43.89;97927.75;6143971;28;96605;-62
2023/02/26 06:13:11;;;;;;;;;7.00;7.00;;;;;7.24;44.15;97932.88;6158557;28;96421;-62
2023/02/26 06:16:15;;;;;;;;;9.00;8.25;;;;;7.25;44.52;97948.75;6128725;28;98368;-62
2023/02/26 06:19:20;;;;;;;;;9.00;8.50;;;;;7.22;44.53;97967.97;6113178;28;97070;-63
2023/02/26 06:22:23;;;;;;;;;10.40;10.00;;;;;7.24;44.79;97967.72;6144806;28;97226;-63
2023/02/26 06:25:28;;;;;;;;;9.50;9.50;;;;;7.27;44.97;97975.34;6162701;28;96554;-63
2023/02/26 06:28:31;;;;;;;;;7.00;7.00;;;;;7.21;44.97;97981.59;6162040;28;96263;-63
2023/02/26 06:31:35;;;;;;;;;9.00;8.40;;;;;7.28;44.79;97985.81;6144791;28;99338;-62
2023/02/26 06:34:38;;;;;;;;;8.50;8.50;;;;;7.27;44.51;97986.88;6120927;28;96643;-63
2023/02/26 06:37:42;;;;;;;;;8.25;7.00;;;;;7.26;44.24;98001.31;6154818;28;96319;-63
2023/02/26 06:40:47;;;;;;;;;7.00;7.00;;;;;7.18;44.20;97998.94;6160529;28;96569;-63
2023/02/26 06:43:50;;;;;;;;;8.25;8.00;;;;;7.30;44.34;97990.97;6163007;28;96859;-63
2023/02/26 06:46:54;;;;;;;;;7.50;7.25;;;;;7.36;43.82;97996.28;6148705;28;96215;-63
2023/02/26 06:49:57;;;;;;;;;8.60;8.60;;;;;7.56;43.72;97997.91;6154809;28;96402;-63
2023/02/26 06:53:00;;;;;;;;;8.40;8.00;;;;;7.67;43.48;98003.31;6153564;28;96379;-63
2023/02/26 06:56:06;;;;;;;;;12.40;12.40;;;;;8.82;42.07;98011.25;6172014;28;96482;-63
2023/02/26 06:59:09;;;;;;;;;8.00;8.00;;;;;9.70;40.57;98008.41;6146554;28;96235;-61
2023/02/26 07:02:17;;;;;;;;;8.25;8.00;;;;;10.66;37.94;98012.97;6154001;28;97460;-62
2023/02/26 07:05:20;;;;;;;;;10.00;9.00;;;;;11.65;36.65;97997.78;6155784;28;96384;-62
2023/02/26 07:08:24;;;;;;;;;8.00;7.25;;;;;13.69;33.17;98012.97;6136461;28;97517;-62
2023/02/26 07:11:28;;;;;;;;;10.00;9.00;;;;;15.83;30.06;98002.97;6154388;28;96849;-63
2023/02/26 07:14:32;;;;;;;;;8.00;7.00;;;;;18.00;27.33;98013.38;6132964;28;98368;-63
2023/02/26 07:17:36;;;;;;;;;8.00;8.00;;;;;19.22;25.59;98018.75;6145918;28;96794;-63
2023/02/26 07:20:39;;;;;;;;;6.20;6.20;;;;;21.03;23.89;98008.03;6153176;28;96355;-63
2023/02/26 07:23:42;;;;;;;;;7.40;6.40;;;;;22.24;21.58;98016.94;6158594;28;96609;-63
2023/02/26 07:26:47;;;;;;;;;10.00;10.00;;;;;21.71;21.94;98025.25;6155263;28;96327;-63
2023/02/26 07:29:50;;;;;;;;;8.80;8.00;;;;;19.97;23.35;98024.00;6150323;28;96339;-63
2023/02/26 07:32:54;;;;;;;;;7.60;7.00;;;;;17.91;24.93;98024.13;6152118;28;96347;-63
2023/02/26 07:35:57;;;;;;;;;9.60;8.60;;;;;16.36;26.71;98030.50;6158324;28;96992;-63
2023/02/26 07:39:01;;;;;;;;;8.75;8.75;;;;;15.22;28.00;98036.72;6156902;28;96589;-63
2023/02/26 07:42:06;;;;;;;;;8.00;7.75;;;;;14.32;29.36;98039.81;6149527;28;96265;-63
2023/02/26 07:45:10;;;;;;;;;8.00;8.00;;;;;13.26;30.40;98028.44;6165536;28;96520;-62
2023/02/26 07:48:14;;;;;;;;;6.00;6.00;;;;;12.75;31.79;98072.31;6165896;28;96499;-62
2023/02/26 07:51:19;;;;;;;;;9.00;8.00;;;;;12.10;32.52;98078.63;6131805;28;97519;-63
2023/02/26 07:54:23;;;;;;;;;10.00;9.00;;;;;11.67;33.33;98084.75;6147674;28;96664;-63
2023/02/26 07:57:27;;;;;;;;;7.00;7.00;;;;;11.25;33.54;98098.66;6162626;28;96322;-62
2023/02/26 08:00:31;;;;;;;;;6.60;6.00;;;;;11.19;33.94;98094.25;6156860;28;96655;-63
2023/02/26 08:03:34;;;;;;;;;8.00;8.00;;;;;10.87;33.89;98114.75;6155998;28;96422;-63
2023/02/26 08:06:37;;;;;;;;;5.00;4.00;;;;;10.54;34.59;98111.97;6144562;28;96696;-63
2023/02/26 08:09:41;;;;;;;;;7.00;7.00;;;;;10.20;34.60;98117.22;6164908;28;97057;-62
2023/02/26 08:12:45;;;;;;;;;4.00;4.00;;;;;9.72;35.30;98127.44;6160253;28;96334;-62
2023/02/26 08:15:49;;;;;;;;;6.00;6.00;;;;;9.34;35.97;98136.75;6154606;28;97494;-62
2023/02/26 08:18:52;;;;;;;;;6.00;6.00;;;;;9.08;37.00;98137.19;6157983;28;96739;-62
2023/02/26 08:21:55;;;;;;;;;5.40;5.40;;;;;8.84;37.48;98133.63;6161721;28;96165;-62
2023/02/26 08:24:59;;;;;;;;;4.75;4.75;;;;;8.68;37.69;98132.38;6127842;28;96678;-62
2023/02/26 08:28:04;;;;;;;;;6.00;6.00;;;;;8.55;38.18;98137.13;6143539;28;96569;-62
2023/02/26 08:31:07;;;;;;;;;6.00;6.00;;;;;8.57;38.80;98146.59;6155491;28;96300;-62
2023/02/26 08:34:11;;;;;;;;;6.00;5.20;;;;;8.42;38.67;98150.72;6158058;28;96702;-62
2023/02/26 08:37:14;;;;;;;;;6.00;6.00;;;;;8.50;38.43;98145.03;6160022;28;96231;-61
2023/02/26 08:40:18;;;;;;;;;5.33;5.33;;;;;8.55;38.55;98154.03;6124137;28;96639;-62
2023/02/26 08:43:23;;;;;;;;;6.00;5.40;;;;;8.75;38.32;98161.03;6154811;28;97039;-62
2023/02/26 08:46:27;;;;;;;;;7.00;7.00;;;;;8.83;37.93;98166.09;6151394;28;96247;-62
2023/02/26 08:49:31;;;;;;;;;8.00;6.40;;;;;8.88;37.46;98159.00;6155135;28;96333;-62
2023/02/26 08:52:34;;;;;;;;;8.40;8.40;;;;;8.94;38.11;98165.31;6150479;28;96249;-63
2023/02/26 08:55:38;;;;;;;;;8.25;8.25;;;;;9.06;37.79;98164.31;6158618;28;97211;-62
2023/02/26 08:58:43;;;;;;;;;8.00;7.00;;;;;9.05;37.72;98173.41;6123718;28;96588;-63
2023/02/26 09:01:46;;;;;;;;;8.00;8.00;;;;;9.09;37.06;98161.13;6147532;28;97048;-64
2023/02/26 09:04:50;;;;;;;;;5.00;4.00;;;;;9.48;37.08;98177.75;6162557;28;96317;-63
2023/02/26 09:07:53;;;;;;;;;6.00;5.60;;;;;9.70;36.95;98173.41;6142340;28;99913;-63
2023/02/26 09:10:59;;;;;;;;;7.20;6.00;;;;;9.99;35.98;98183.25;6162798;28;96322;-63
2023/02/26 09:14:05;;;;;;;;;8.00;6.60;;;;;10.19;35.96;98195.56;6137678;28;96634;-63
2023/02/26 09:17:08;;;;;;;;;8.00;6.80;;;;;10.27;35.18;98203.28;6139351;28;96945;-63
2023/02/26 09:20:13;;;;;;;;;6.25;6.00;;;;;10.31;34.75;98210.66;6142568;28;96779;-63
2023/02/26 09:23:16;;;;;;;;;6.00;6.00;;;;;10.26;34.84;98213.22;6163173;28;97287;-63
2023/02/26 09:26:20;;;;;;;;;7.20;7.20;;;;;10.24;35.21;98223.44;6148109;28;96541;-63
2023/02/26 09:29:24;;;;;;;;;5.25;5.00;;;;;10.20;34.91;98218.75;6157645;28;95967;-63
2023/02/26 09:32:28;;;;;;;;;5.80;5.20;;;;;10.10;34.75;98221.19;6141124;28;96820;-63
2023/02/26 09:35:31;;;;;;;;;7.00;7.00;;;;;9.85;34.77;98233.00;6146413;28;96280;-63
2023/02/26 09:38:35;;;;;;;;;7.00;6.40;;;;;9.64;35.43;98238.09;6139694;28;96152;-63
2023/02/26 09:41:44;;;;;;;;;6.60;6.60;;;;;9.42;35.57;98245.91;6155019;28;96421;-63
2023/02/26 09:44:50;;;;;;;;;5.00;5.00;;;;;9.16;37.49;98247.09;6141340;28;96645;-63
2023/02/26 09:47:55;;;;;;;;;4.25;4.25;;;;;8.87;38.75;98243.34;6147863;28;96228;-63
2023/02/26 09:50:59;;;;;;;;;6.00;6.00;;;;;8.54;39.65;98238.38;6163898;28;96515;-63
2023/02/26 09:54:12;;;;;;;;;6.20;6.20;;;;;8.45;40.70;98247.78;6120773;28;96821;-63
2023/02/26 09:57:26;;;;;;;;;6.00;6.00;;;;;8.25;40.36;98247.16;6137745;28;99693;-63
2023/02/26 10:00:37;;;;;;;;;7.00;6.60;;;;;8.20;40.76;98255.06;6141327;28;98549;-63
2023/02/26 10:03:57;;;;;;;;;7.00;7.00;;;;;8.27;40.08;98251.25;6163406;28;96218;-63
2023/02/26 10:07:15;;;;;;;;;6.00;5.40;;;;;8.35;40.47;98260.09;6144485;28;96546;-60
2023/02/26 10:10:28;;;;;;;;;6.40;6.00;;;;;8.41;40.29;98270.75;6162785;28;96784;-60
2023/02/26 10:13:40;;;;;;;;;8.00;6.00;;;;;8.62;40.75;98274.88;6145476;28;96319;-59
2023/02/26 10:17:14;;;;;;;;;6.00;6.00;;;;;9.34;39.27;98273.94;6154361;28;96921;-60
2023/02/26 10:20:23;;;;;;;;;6.20;6.20;;;;;10.18;37.27;98269.34;6153126;28;96204;-60
2023/02/26 10:23:36;;;;;;;;;5.20;5.00;;;;;10.86;37.24;98286.50;6153965;28;96351;-59
2023/02/26 10:26:43;;;;;;;;;6.00;6.00;;;;;11.28;36.47;98280.88;6151247;28;96902;-59
2023/02/26 10:29:58;;;;;;;;;7.60;6.60;;;;;11.43;35.62;98289.25;6137435;28;96324;-60
2023/02/26 10:33:13;;;;;;;;;5.25;5.25;;;;;11.39;34.62;98277.28;6154384;28;96520;-60
2023/02/26 10:36:24;;;;;;;;;4.25;4.25;;;;;11.31;33.38;98283.06;6149715;28;96313;-59
2023/02/26 10:39:32;;;;;;;;;5.60;5.00;;;;;11.28;33.01;98297.88;6162967;28;96236;-59
2023/02/26 10:42:45;;;;;;;;;5.00;5.00;;;;;11.24;31.96;98290.47;6137484;28;96347;-59
2023/02/26 10:46:02;;;;;;;;;3.75;3.75;;;;;12.21;32.02;98298.44;6160552;28;96284;-60
2023/02/26 10:49:26;;;;;;;;;3.00;3.00;;;;;13.65;30.97;98304.41;6144838;28;98425;-60
2023/02/26 10:52:33;;;;;;;;;3.00;3.00;;;;;14.64;27.62;98316.38;6131573;28;96333;-59
2023/02/26 10:55:41;;;;;;;;;4.00;4.00;;;;;16.06;26.35;98311.50;6160214;28;96631;-59
2023/02/26 10:58:46;;;;;;;;;7.00;6.40;;;;;18.11;25.04;98309.50;6169173;28;96243;-60
2023/02/26 11:01:51;;;;;;;;;3.00;3.00;;;;;20.18;21.74;98320.00;6150519;28;96675;-60
2023/02/26 11:04:56;;;;;;;;;4.80;4.20;;;;;21.86;19.59;98318.47;6168483;28;96318;-60
2023/02/26 11:08:17;;;;;;;;;4.50;3.50;;;;;23.04;18.58;98313.38;6166780;28;96579;-60
2023/02/26 11:11:41;;;;;;;;;5.00;5.00;;;;;23.21;17.49;98324.44;6168769;28;97161;-60
2023/02/26 11:14:47;;;;;;;;;3.00;3.00;;;;;23.92;16.91;98322.38;6168592;28;96376;-59
2023/02/26 11:17:56;;;;;;;;;6.00;6.00;;;;;23.99;17.43;98316.41;6162940;28;96159;-60
2023/02/26 11:21:05;;;;;;;;;3.20;3.20;;;;;23.56;16.20;98324.56;6159506;28;96456;-61
2023/02/26 11:24:13;;;;;;;;;6.00;6.00;;;;;22.22;17.68;98327.53;6132093;28;96982;-60
2023/02/26 11:27:19;;;;;;;;;4.00;4.00;;;;;21.32;18.74;98339.34;6151920;28;96847;-60
2023/02/26 11:30:27;;;;;;;;;6.00;6.00;;;;;21.13;19.22;98344.09;6158331;28;96367;-60
2023/02/26 11:33:37;;;;;;;;;6.00;5.00;;;;;20.29;19.10;98346.06;6143035;28;96680;-59
2023/02/26 11:36:44;;;;;;;;;5.00;5.00;;;;;19.08;20.18;98350.41;6147826;28;96918;-59
2023/02/26 11:39:53;;;;;;;;;5.00;5.00;;;;;17.77;22.58;98358.53;6160167;28;96296;-60
2023/02/26 11:43:00;;;;;;;;;9.00;8.00;;;;;16.48;24.32;98377.31;6159299;28;96233;-60
2023/02/26 11:46:05;;;;;;;;;7.20;7.20;;;;;15.55;25.62;98370.34;6153298;28;96038;-59
2023/02/26 11:49:12;;;;;;;;;8.00;8.00;;;;;14.53;27.22;98371.63;6168274;28;96460;-59
2023/02/26 11:52:22;;;;;;;;;8.00;7.60;;;;;13.69;28.21;98371.34;6154974;28;96588;-60
2023/02/26 11:55:29;;;;;;;;;6.75;6.00;;;;;12.88;28.81;98381.13;6144788;28;96397;-59
2023/02/26 11:58:37;;;;;;;;;6.60;6.60;;;;;12.25;30.03;98375.25;6121326;28;98411;-59
2023/02/26 12:01:41;;;;;;;;;6.00;6.00;;;;;11.74;30.09;98377.03;6164632;28;96319;-59
2023/02/26 12:04:49;;;;;;;;;5.80;5.80;;;;;11.58;30.48;98385.91;6164111;28;97554;-58
2023/02/26 12:07:54;;;;;;;;;6.00;6.00;;;;;11.49;30.77;98390.84;6165507;28;97061;-58
2023/02/26 12:11:32;;;;;;;;;6.00;6.00;;;;;11.44;31.25;98381.81;6164730;28;98534;-60
2023/02/26 12:15:02;;;;;;;;;6.00;5.75;;;;;11.52;31.59;98394.94;6185864;28;96316;-60
2023/02/26 12:18:35;;;;;;;;;8.00;7.50;;;;;11.55;31.99;98400.69;6164247;28;96253;-61
2023/02/26 12:22:02;;;;;;;;;7.60;7.60;;;;;11.64;31.70;98395.72;6163587;28;96421;-60
2023/02/26 12:25:24;;;;;;;;;7.40;7.40;;;;;11.77;31.32;98408.97;6188218;28;96186;-61
2023/02/26 12:28:44;;;;;;;;;8.60;8.60;;;;;11.90;31.05;98415.97;6158092;28;96809;-61
2023/02/26 12:32:19;;;;;;;;;8.50;8.00;;;;;11.79;31.90;98420.34;6160269;28;96342;-60
2023/02/26 12:35:48;;;;;;;;;4.00;4.00;;;;;11.59;30.98;98423.44;6188683;28;96669;-60
2023/02/26 12:39:00;;;;;;;;;8.40;8.00;;;;;11.48;31.43;98429.72;6157661;28;97116;-60
2023/02/26 12:42:17;;;;;;;;;9.80;9.80;;;;;11.21;31.92;98432.09;6152008;28;98196;-60
2023/02/26 12:45:47;;;;;;;;;9.00;9.00;;;;;11.05;31.63;98443.59;6176738;28;96280;-60
2023/02/26 12:49:23;;;;;;;;;12.00;12.00;;;;;10.86;32.42;98444.78;6167568;28;96714;-60
2023/02/26 12:52:58;;;;;;;;;9.00;8.40;;;;;10.55;33.00;98445.09;6166375;28;96980;-60
2023/02/26 12:56:16;;;;;;;;;8.25;8.25;;;;;10.30;33.42;98451.50;6102526;28;96274;-60
2023/02/26 12:59:39;;;;;;;;;9.40;9.40;;;;;10.11;34.48;98455.28;6187078;28;96829;-60
2023/02/26 13:03:26;;;;;;;;;8.80;8.80;;;;;9.83;35.18;98461.22;6162706;28;96773;-60
2023/02/26 13:06:54;;;;;;;;;6.00;6.00;;;;;9.49;34.25;98472.63;6185904;28;96444;-60
2023/02/26 13:10:06;;;;;;;;;8.60;8.60;;;;;9.29;34.60;98480.91;6181769;28;96251;-60
2023/02/26 13:13:33;;;;;;;;;6.75;6.00;;;;;9.24;34.98;98482.63;6167196;28;97124;-59
2023/02/26 13:16:49;;;;;;;;;7.00;7.00;;;;;9.16;35.98;98491.00;6155241;28;97400;-60
2023/02/26 13:19:56;;;;;;;;;11.00;10.00;;;;;9.10;36.45;98506.97;6155562;28;96259;-60
2023/02/26 13:23:02;;;;;;;;;9.50;9.50;;;;;9.00;36.81;98498.59;6173941;28;96167;-60
2023/02/26 13:26:10;;;;;;;;;8.40;7.80;;;;;8.96;37.30;98507.31;6170744;28;96650;-60
2023/02/26 13:29:18;;;;;;;;;9.40;9.00;;;;;8.92;37.90;98520.38;6172499;28;96374;-60
2023/02/26 13:32:26;;;;;;;;;11.75;11.50;;;;;8.90;39.90;98530.53;6156485;28;97001;-60
2023/02/26 13:35:34;;;;;;;;;9.67;9.67;;;;;8.80;40.68;98532.06;6155252;28;98370;-60
2023/02/26 13:38:53;;;;;;;;;10.40;10.40;;;;;8.56;40.12;98531.00;6164880;28;96217;-60
2023/02/26 13:42:06;;;;;;;;;9.00;9.00;;;;;8.38;39.91;98547.03;6179032;28;97279;-60
2023/02/26 13:45:26;;;;;;;;;7.75;7.00;;;;;8.13;39.32;98547.75;6153704;28;96218;-60
2023/02/26 13:48:42;;;;;;;;;5.60;5.60;;;;;7.91;38.29;98546.44;6169043;28;96781;-60
2023/02/26 13:51:48;;;;;;;;;6.00;5.20;;;;;7.93;38.28;98549.72;6156325;28;96280;-60
2023/02/26 13:54:51;;;;;;;;;6.80;5.00;;;;;7.92;38.38;98548.03;6169741;28;96907;-60
2023/02/26 13:57:55;;;;;;;;;6.25;6.00;;;;;7.90;37.95;98527.84;6171428;28;96179;-60
2023/02/26 14:01:05;;;;;;;;;9.00;9.00;;;;;7.88;38.20;98511.13;6168673;28;96762;-60
2023/02/26 14:04:26;;;;;;;;;9.25;9.00;;;;;8.24;37.79;98548.94;6174260;28;96269;-60
2023/02/26 14:07:48;;;;;;;;;6.00;6.00;;;;;8.34;37.33;98554.72;6158093;28;96203;-60
2023/02/26 14:10:59;;;;;;;;;9.40;9.00;;;;;8.45;37.19;98569.31;6168944;28;96374;-59
2023/02/26 14:14:12;;;;;;;;;7.20;6.60;;;;;8.48;37.21;98574.25;6171430;28;96326;-60
2023/02/26 14:17:31;;;;;;;;;5.25;5.00;;;;;8.52;36.82;98572.78;6156972;28;98847;-60
2023/02/26 14:20:36;;;;;;;;;9.60;9.60;;;;;8.49;36.93;98579.41;6155530;28;96808;-60
2023/02/26 14:23:41;;;;;;;;;8.75;8.75;;;;;8.56;36.51;98571.28;6171608;28;96192;-60
2023/02/26 14:26:48;;;;;;;;;8.75;8.50;;;;;8.58;36.99;98586.19;6157867;28;96225;-60
2023/02/26 14:30:01;;;;;;;;;10.40;9.40;;;;;8.61;36.87;98579.53;6170085;28;96317;-60
2023/02/26 14:33:09;;;;;;;;;8.40;7.60;;;;;8.50;36.60;98570.28;6173453;28;96362;-60
2023/02/26 14:36:21;;;;;;;;;6.60;6.60;;;;;8.60;36.70;98589.47;6169776;28;96193;-60
2023/02/26 14:39:29;;;;;;;;;8.20;8.00;;;;;8.52;37.02;98573.59;6167899;28;96418;-59
2023/02/26 14:42:35;;;;;;;;;6.80;6.80;;;;;8.72;36.79;98580.72;6163895;28;96795;-57
2023/02/26 14:45:41;;;;;;;;;9.40;9.00;;;;;8.86;36.73;98593.00;6146290;28;96762;-57
2023/02/26 14:48:45;;;;;;;;;7.50;7.50;;;;;8.89;36.08;98579.16;6132543;28;96625;-56
2023/02/26 14:52:03;;;;;;;;;8.40;6.40;;;;;8.99;36.16;98590.25;6153954;28;96220;-56